This is the latest recevied weather packets stored in our database for station/object OE-11140. If no packets are shown the sender has not sent any weather packets the latest 10 day(s).
| Time | Temp. | Humidity | Pressure | Rain* | Wind** | Luminosity | Snow |
|---|---|---|---|---|---|---|---|
| 1788084316 | 24.44° C | 47% | 1014.9 hPa | 0 mm | - | 722 W/m² | - |
| 1788083715 | 23.89° C | 49% | 1015.1 hPa | 0 mm | - | 709 W/m² | - |
| 1788082889 | 23.89° C | 50% | 1015.2 hPa | 0 mm | - | 696 W/m² | - |
| 1788082516 | 23.33° C | 55% | 1015.5 hPa | 0 mm | - | 676 W/m² | - |
| 1788081916 | 23.33° C | 53% | 1015.7 hPa | 0 mm | - | 656 W/m² | - |
| 1788081089 | 22.22° C | 58% | 1016.1 hPa | 0 mm | - | 643 W/m² | - |
| 1788080715 | 21.67° C | 55% | 1016.2 hPa | 0 mm | - | 623 W/m² | - |
| 1788080116 | 21.67° C | 61% | 1016.4 hPa | 0 mm | - | 550 W/m² | - |
| 1788079289 | 20.56° C | 61% | 1016.7 hPa | 0 mm | - | 550 W/m² | - |
| 1788078915 | 20.56° C | 63% | 1016.8 hPa | 0 mm | - | 563 W/m² | - |
| 1788078316 | 20° C | 64% | 1017 hPa | 0 mm | - | 543 W/m² | - |
| 1788077488 | 19.44° C | 68% | 1017.3 hPa | 0 mm | - | 530 W/m² | - |
| 1788077116 | 19.44° C | 69% | 1017.4 hPa | 0 mm | - | 517 W/m² | - |
| 1788076516 | 18.89° C | 70% | 1017.6 hPa | 0 mm | - | 471 W/m² | - |
| 1788075689 | 18.33° C | 72% | 1017.7 hPa | 0 mm | - | 424 W/m² | - |
| 1788075315 | 17.78° C | 71% | 1017.8 hPa | 0 mm | - | 437 W/m² | - |
| 1788074716 | 17.22° C | 76% | 1018 hPa | 0 mm | - | 391 W/m² | - |
| 1788073889 | 16.67° C | 77% | 1018.1 hPa | 0 mm | - | 364 W/m² | - |
| 1788073516 | 15.56° C | 80% | 1018.4 hPa | 0 mm | - | 345 W/m² | - |
| 1788072915 | 14.44° C | 86% | 1018.7 hPa | 0 mm | - | 113 W/m² | - |
| 1788072089 | 13.33° C | 90% | 1019 hPa | 0 mm | - | 46 W/m² | - |
| 1788071716 | 13.33° C | 91% | 1019 hPa | 0 mm | - | 46 W/m² | - |
| 1788071116 | 12.78° C | 91% | 1019.2 hPa | 0 mm | - | 40 W/m² | - |
| 1788070289 | 12.78° C | 92% | 1019.2 hPa | 0 mm | - | 40 W/m² | - |
| 1788069915 | 12.78° C | 92% | 1019.2 hPa | 0 mm | - | 33 W/m² | - |
* Rain latest hour (hover to see other rain measurements)
** Current wind speed in m/s (hover to see current wind gust speed)